Time,TemperatureF,DewpointF,PressureIn,WindDirection,WindDirectionDegrees,WindSpeedMPH,WindSpeedGustMPH,Humidity,HourlyPrecipIn,Conditions,Clouds,dailyrainin,SoftwareType,DateUTC
2013-01-31 00:00:00,70.1,67.4,29.97,SSE,156,5.0,7.0,91,0.00,,SKC,0.00,VWS V14.01,2013-01-31 05:00:00,
2013-01-31 00:02:00,70.1,67.4,29.97,SSE,159,2.0,5.0,91,0.00,,SKC,0.00,VWS V14.01,2013-01-31 05:02:00,
2013-01-31 00:07:00,70.0,67.3,29.97,SE,146,1.0,5.0,91,0.00,,SKC,0.00,VWS V14.01,2013-01-31 05:07:00,
2013-01-31 00:12:00,70.0,67.3,29.97,South,184,5.0,6.0,91,0.00,,SKC,0.00,VWS V14.01,2013-01-31 05:12:00,
2013-01-31 00:17:00,70.0,67.3,29.97,SSE,148,1.0,6.0,91,0.00,,SKC,0.00,VWS V14.01,2013-01-31 05:17:00,
2013-01-31 00:22:00,69.9,67.2,29.97,SE,137,5.0,6.0,91,0.00,,SKC,0.00,VWS V14.01,2013-01-31 05:22:00,
2013-01-31 00:27:00,69.9,67.5,29.97,SE,132,6.0,6.0,92,0.00,,SKC,0.00,VWS V14.01,2013-01-31 05:27:00,
2013-01-31 00:32:00,70.0,67.6,29.96,SE,140,7.0,7.0,92,0.00,,SKC,0.00,VWS V14.01,2013-01-31 05:32:00,
2013-01-31 00:37:00,70.0,67.6,29.96,SE,142,4.0,7.0,92,0.00,,SKC,0.00,VWS V14.01,2013-01-31 05:37:00,
2013-01-31 00:42:00,70.0,67.6,29.96,SSE,161,7.0,9.0,92,0.00,,SKC,0.00,VWS V14.01,2013-01-31 05:42:00,
2013-01-31 00:47:00,70.1,67.7,29.96,SSE,148,3.0,9.0,92,0.00,,SKC,0.00,VWS V14.01,2013-01-31 05:47:00,
2013-01-31 00:52:00,70.1,67.7,29.95,SSE,165,3.0,9.0,92,0.00,,SKC,0.00,VWS V14.01,2013-01-31 05:52:00,
2013-01-31 00:57:00,70.1,67.7,29.95,South,186,3.0,9.0,92,0.00,,SKC,0.00,VWS V14.01,2013-01-31 05:57:00,
2013-01-31 01:02:00,70.2,67.8,29.95,SW,215,4.0,8.0,92,0.00,,SKC,0.00,VWS V14.01,2013-01-31 06:02:00,
2013-01-31 01:07:00,70.3,67.9,29.95,SSE,158,5.0,10.0,92,0.00,,SKC,0.00,VWS V14.01,2013-01-31 06:07:00,
2013-01-31 01:12:00,70.3,67.9,29.96,ESE,111,7.0,10.0,92,0.00,,SKC,0.00,VWS V14.01,2013-01-31 06:12:00,
2013-01-31 01:17:00,70.3,67.9,29.95,SSE,163,5.0,10.0,92,0.00,,SKC,0.00,VWS V14.01,2013-01-31 06:17:00,
2013-01-31 01:22:00,70.3,67.9,29.96,SSE,156,3.0,10.0,92,0.00,,SKC,0.00,VWS V14.01,2013-01-31 06:22:00,
2013-01-31 01:27:00,70.3,67.9,29.96,South,190,8.0,10.0,92,0.00,,SKC,0.00,VWS V14.01,2013-01-31 06:27:00,
2013-01-31 01:32:00,70.4,68.0,29.95,SE,145,5.0,8.0,92,0.00,,SKC,0.00,VWS V14.01,2013-01-31 06:32:00,
2013-01-31 01:37:00,70.5,68.1,29.95,SSE,150,5.0,10.0,92,0.00,,SKC,0.00,VWS V14.01,2013-01-31 06:37:00,
2013-01-31 01:42:00,70.5,68.1,29.95,SSW,203,6.0,10.0,92,0.00,,SKC,0.00,VWS V14.01,2013-01-31 06:42:00,
2013-01-31 01:47:00,70.5,68.1,29.95,SSE,156,5.0,10.0,92,0.00,,SKC,0.00,VWS V14.01,2013-01-31 06:47:00,
2013-01-31 01:52:00,70.5,68.1,29.95,South,169,6.0,10.0,92,0.00,,SKC,0.00,VWS V14.01,2013-01-31 06:52:00,
2013-01-31 01:57:00,70.5,68.1,29.94,SSE,148,1.0,10.0,92,0.00,,SKC,0.00,VWS V14.01,2013-01-31 06:57:00,
2013-01-31 02:02:00,70.4,68.0,29.94,SSW,202,6.0,8.0,92,0.00,,SKC,0.00,VWS V14.01,2013-01-31 07:02:00,
2013-01-31 02:07:00,70.5,68.1,29.94,South,170,5.0,9.0,92,0.00,,SKC,0.00,VWS V14.01,2013-01-31 07:07:00,
2013-01-31 02:12:00,70.5,68.1,29.94,SSE,168,4.0,9.0,92,0.00,,SKC,0.00,VWS V14.01,2013-01-31 07:12:00,
2013-01-31 02:17:00,70.6,68.2,29.94,SW,215,2.0,9.0,92,0.00,,SKC,0.00,VWS V14.01,2013-01-31 07:17:00,
2013-01-31 02:22:00,70.7,68.3,29.95,SSE,148,7.0,9.0,92,0.00,,SKC,0.00,VWS V14.01,2013-01-31 07:22:00,
2013-01-31 02:27:00,70.9,68.5,29.94,South,172,7.0,9.0,92,0.00,,SKC,0.00,VWS V14.01,2013-01-31 07:27:00,
2013-01-31 02:32:00,71.1,68.7,29.94,SSE,153,5.0,10.0,92,0.00,,SKC,0.00,VWS V14.01,2013-01-31 07:32:00,
2013-01-31 02:37:00,71.2,68.8,29.94,SSE,153,5.0,10.0,92,0.00,,SKC,0.00,VWS V14.01,2013-01-31 07:37:00,
2013-01-31 02:42:00,71.4,68.6,29.94,SE,146,2.0,10.0,91,0.00,,SKC,0.00,VWS V14.01,2013-01-31 07:42:00,
2013-01-31 02:47:00,71.4,68.6,29.94,ESE,122,7.0,10.0,91,0.00,,SKC,0.00,VWS V14.01,2013-01-31 07:47:00,
2013-01-31 02:52:00,71.5,68.7,29.94,SSE,164,4.0,10.0,91,0.00,,SKC,0.00,VWS V14.01,2013-01-31 07:52:00,
2013-01-31 02:57:00,71.5,68.7,29.94,SSE,152,6.0,11.0,91,0.00,,SKC,0.00,VWS V14.01,2013-01-31 07:57:00,
2013-01-31 03:02:00,71.7,68.9,29.94,South,186,5.0,9.0,91,0.00,,SKC,0.00,VWS V14.01,2013-01-31 08:02:00,
2013-01-31 03:07:00,71.8,69.0,29.93,South,180,5.0,9.0,91,0.00,,SKC,0.00,VWS V14.01,2013-01-31 08:07:00,
2013-01-31 03:12:00,71.8,69.0,29.93,South,176,1.0,9.0,91,0.00,,SKC,0.00,VWS V14.01,2013-01-31 08:12:00,
2013-01-31 03:17:00,71.9,68.8,29.93,SSW,195,2.0,9.0,90,0.00,,SKC,0.00,VWS V14.01,2013-01-31 08:17:00,
2013-01-31 03:22:00,72.0,68.9,29.93,South,178,8.0,9.0,90,0.00,,SKC,0.00,VWS V14.01,2013-01-31 08:22:00,
2013-01-31 03:27:00,72.1,69.0,29.93,SSE,148,5.0,9.0,90,0.00,,SKC,0.00,VWS V14.01,2013-01-31 08:27:00,
2013-01-31 03:32:00,72.2,69.1,29.93,SE,146,8.0,8.0,90,0.00,,SKC,0.00,VWS V14.01,2013-01-31 08:32:00,
2013-01-31 03:37:00,72.2,69.1,29.93,South,187,3.0,8.0,90,0.00,,SKC,0.00,VWS V14.01,2013-01-31 08:37:00,
2013-01-31 03:42:00,72.3,69.2,29.93,SSE,150,8.0,9.0,90,0.00,,SKC,0.00,VWS V14.01,2013-01-31 08:42:00,
2013-01-31 03:47:00,72.3,69.2,29.93,SE,141,4.0,9.0,90,0.00,,SKC,0.00,VWS V14.01,2013-01-31 08:47:00,
2013-01-31 03:52:00,72.3,68.9,29.93,South,178,7.0,9.0,89,0.00,,SKC,0.00,VWS V14.01,2013-01-31 08:52:00,
2013-01-31 03:57:00,72.4,69.0,29.93,SSE,147,4.0,9.0,89,0.00,,SKC,0.00,VWS V14.01,2013-01-31 08:57:00,
2013-01-31 04:02:00,72.4,69.0,29.93,SSE,152,9.0,9.0,89,0.00,,SKC,0.00,VWS V14.01,2013-01-31 09:02:00,
2013-01-31 04:07:00,72.4,69.0,29.93,SSE,158,6.0,9.0,89,0.00,,SKC,0.00,VWS V14.01,2013-01-31 09:07:00,
2013-01-31 04:12:00,72.4,69.0,29.93,SE,138,5.0,10.0,89,0.00,,SKC,0.00,VWS V14.01,2013-01-31 09:12:00,
2013-01-31 04:17:00,72.4,69.0,29.93,South,180,3.0,10.0,89,0.00,,SKC,0.00,VWS V14.01,2013-01-31 09:17:00,
2013-01-31 04:22:00,72.5,69.1,29.93,SW,232,2.0,10.0,89,0.00,,SKC,0.00,VWS V14.01,2013-01-31 09:22:00,
2013-01-31 04:27:00,72.6,69.2,29.93,SSW,213,1.0,10.0,89,0.00,,SKC,0.00,VWS V14.01,2013-01-31 09:27:00,
2013-01-31 04:32:00,72.7,69.3,29.93,SSE,167,6.0,8.0,89,0.00,,SKC,0.00,VWS V14.01,2013-01-31 09:32:00,
2013-01-31 04:37:00,72.9,69.1,29.94,SW,217,9.0,10.0,88,0.00,,SKC,0.00,VWS V14.01,2013-01-31 09:37:00,
2013-01-31 04:42:00,73.2,69.4,29.96,West,277,11.0,13.0,88,0.00,,SKC,0.00,VWS V14.01,2013-01-31 09:42:00,
2013-01-31 04:47:00,70.9,65.8,29.97,WNW,296,10.0,20.0,84,0.00,,SKC,0.00,VWS V14.01,2013-01-31 09:47:00,
2013-01-31 04:52:00,68.2,63.9,29.97,North,355,9.0,20.0,86,0.00,,SKC,0.00,VWS V14.01,2013-01-31 09:52:00,
2013-01-31 04:57:00,66.2,62.9,29.98,WNW,294,13.0,21.0,89,0.00,,SKC,0.00,VWS V14.01,2013-01-31 09:57:00,
2013-01-31 05:02:00,64.9,61.6,29.99,NW,319,9.0,25.0,89,0.00,,SKC,0.00,VWS V14.01,2013-01-31 10:02:00,
2013-01-31 05:07:00,63.4,60.4,29.99,West,264,7.0,25.0,90,0.00,,SKC,0.00,VWS V14.01,2013-01-31 10:07:00,
2013-01-31 05:12:00,62.9,60.2,29.99,WNW,301,7.0,25.0,91,0.00,,SKC,0.00,VWS V14.01,2013-01-31 10:12:00,
2013-01-31 05:17:00,62.5,60.2,30.00,West,265,5.0,25.0,92,0.00,,SKC,0.00,VWS V14.01,2013-01-31 10:17:00,
2013-01-31 05:22:00,62.3,60.0,30.00,West,271,12.0,25.0,92,0.00,,SKC,0.00,VWS V14.01,2013-01-31 10:22:00,
2013-01-31 05:27:00,61.8,59.5,30.00,WNW,295,13.0,25.0,92,0.01,,SKC,0.01,VWS V14.01,2013-01-31 10:27:00,
2013-01-31 05:32:00,61.5,59.2,30.01,WNW,302,6.0,15.0,92,0.01,,SKC,0.01,VWS V14.01,2013-01-31 10:32:00,
2013-01-31 05:37:00,61.3,59.3,30.00,NW,312,12.0,16.0,93,0.01,,SKC,0.01,VWS V14.01,2013-01-31 10:37:00,
2013-01-31 05:42:00,61.3,59.3,30.01,NNW,327,11.0,16.0,93,0.01,,SKC,0.01,VWS V14.01,2013-01-31 10:42:00,
2013-01-31 05:47:00,61.2,59.2,30.01,NNW,338,12.0,16.0,93,0.02,,SKC,0.02,VWS V14.01,2013-01-31 10:47:00,
2013-01-31 05:52:00,60.8,58.8,30.01,WNW,287,8.0,16.0,93,0.02,,SKC,0.02,VWS V14.01,2013-01-31 10:52:00,
2013-01-31 05:57:00,60.5,58.5,30.02,NNW,339,5.0,16.0,93,0.02,,SKC,0.02,VWS V14.01,2013-01-31 10:57:00,
2013-01-31 06:02:00,60.3,58.3,30.02,West,276,8.0,12.0,93,0.02,,SKC,0.02,VWS V14.01,2013-01-31 11:02:00,
2013-01-31 06:07:00,60.1,58.1,30.02,NW,321,6.0,14.0,93,0.02,,SKC,0.02,VWS V14.01,2013-01-31 11:07:00,
2013-01-31 06:12:00,60.0,58.0,30.03,NNW,340,8.0,14.0,93,0.02,,SKC,0.02,VWS V14.01,2013-01-31 11:12:00,
2013-01-31 06:17:00,59.9,58.2,30.03,North,360,5.0,15.0,94,0.03,,SKC,0.03,VWS V14.01,2013-01-31 11:17:00,
2013-01-31 06:22:00,59.9,58.2,30.03,West,273,11.0,15.0,94,0.03,,SKC,0.03,VWS V14.01,2013-01-31 11:22:00,
2013-01-31 06:27:00,59.9,58.2,30.03,NNW,338,6.0,15.0,94,0.03,,SKC,0.03,VWS V14.01,2013-01-31 11:27:00,
2013-01-31 06:32:00,60.0,58.3,30.04,East,81,5.0,10.0,94,0.04,,SKC,0.05,VWS V14.01,2013-01-31 11:32:00,
2013-01-31 06:37:00,59.8,58.1,30.04,WNW,300,6.0,10.0,94,0.04,,SKC,0.05,VWS V14.01,2013-01-31 11:37:00,
2013-01-31 06:42:00,59.8,58.1,30.04,WNW,295,8.0,10.0,94,0.04,,SKC,0.05,VWS V14.01,2013-01-31 11:42:00,
2013-01-31 06:47:00,59.7,58.0,30.04,West,261,5.0,11.0,94,0.04,,SKC,0.05,VWS V14.01,2013-01-31 11:47:00,
2013-01-31 06:52:00,59.7,58.0,30.05,NW,309,5.0,12.0,94,0.05,,SKC,0.06,VWS V14.01,2013-01-31 11:52:00,
2013-01-31 06:57:00,59.7,58.0,30.04,North,355,7.0,12.0,94,0.05,,SKC,0.06,VWS V14.01,2013-01-31 11:57:00,
2013-01-31 07:02:00,59.6,57.9,30.05,NW,311,6.0,7.0,94,0.04,,SKC,0.06,VWS V14.01,2013-01-31 12:02:00,
2013-01-31 07:07:00,59.6,57.9,30.06,NNE,21,5.0,9.0,94,0.04,,SKC,0.06,VWS V14.01,2013-01-31 12:07:00,
2013-01-31 07:12:00,59.4,57.7,30.06,NW,325,6.0,9.0,94,0.05,,SKC,0.07,VWS V14.01,2013-01-31 12:12:00,
2013-01-31 07:17:00,59.2,57.5,30.07,NNE,19,11.0,11.0,94,0.05,,SKC,0.07,VWS V14.01,2013-01-31 12:17:00,
2013-01-31 07:22:00,59.1,57.4,30.07,NNW,347,6.0,11.0,94,0.05,,SKC,0.07,VWS V14.01,2013-01-31 12:22:00,
2013-01-31 07:27:00,59.1,57.4,30.07,NW,321,2.0,11.0,94,0.06,,SKC,0.08,VWS V14.01,2013-01-31 12:27:00,
2013-01-31 07:32:00,59.2,57.5,30.07,WNW,298,2.0,10.0,94,0.04,,SKC,0.08,VWS V14.01,2013-01-31 12:32:00,
2013-01-31 07:37:00,59.2,57.5,30.08,NNW,346,3.0,10.0,94,0.04,,SKC,0.08,VWS V14.01,2013-01-31 12:37:00,
2013-01-31 07:42:00,59.2,57.5,30.07,NW,321,5.0,10.0,94,0.05,,SKC,0.09,VWS V14.01,2013-01-31 12:42:00,
2013-01-31 07:47:00,59.2,57.5,30.08,North,5,7.0,10.0,94,0.05,,SKC,0.09,VWS V14.01,2013-01-31 12:47:00,
2013-01-31 07:52:00,59.2,57.5,30.08,NNE,18,1.0,10.0,94,0.05,,SKC,0.09,VWS V14.01,2013-01-31 12:52:00,
2013-01-31 07:57:00,59.1,57.4,30.08,NNE,28,4.0,10.0,94,0.05,,SKC,0.09,VWS V14.01,2013-01-31 12:57:00,
2013-01-31 08:02:00,59.1,57.4,30.08,NNW,342,9.0,11.0,94,0.03,,SKC,0.09,VWS V14.01,2013-01-31 13:02:00,
2013-01-31 08:07:00,59.2,57.8,30.09,WNW,283,0.0,11.0,95,0.03,,SKC,0.09,VWS V14.01,2013-01-31 13:07:00,
2013-01-31 08:12:00,59.2,57.5,30.08,NNW,348,4.0,11.0,94,0.03,,SKC,0.09,VWS V14.01,2013-01-31 13:12:00,
2013-01-31 08:17:00,59.3,57.6,30.08,NNE,13,8.0,11.0,94,0.03,,SKC,0.09,VWS V14.01,2013-01-31 13:17:00,
2013-01-31 08:22:00,59.4,57.7,30.09,NE,50,4.0,11.0,94,0.03,,SKC,0.09,VWS V14.01,2013-01-31 13:22:00,
2013-01-31 08:27:00,59.6,57.9,30.09,NNW,340,0.0,11.0,94,0.03,,SKC,0.09,VWS V14.01,2013-01-31 13:27:00,
2013-01-31 08:32:00,59.7,58.0,30.09,NE,43,2.0,5.0,94,0.01,,SKC,0.09,VWS V14.01,2013-01-31 13:32:00,
2013-01-31 08:37:00,59.7,58.0,30.09,NE,34,5.0,7.0,94,0.01,,SKC,0.09,VWS V14.01,2013-01-31 13:37:00,
2013-01-31 08:42:00,59.9,58.2,30.09,NNW,344,1.0,8.0,94,0.02,,SKC,0.10,VWS V14.01,2013-01-31 13:42:00,
2013-01-31 08:47:00,60.0,58.3,30.09,NNE,19,4.0,8.0,94,0.02,,SKC,0.10,VWS V14.01,2013-01-31 13:47:00,
2013-01-31 08:52:00,60.1,58.4,30.10,NNE,15,5.0,9.0,94,0.02,,SKC,0.10,VWS V14.01,2013-01-31 13:52:00,
2013-01-31 08:57:00,60.1,58.4,30.10,NNW,341,0.0,10.0,94,0.02,,SKC,0.10,VWS V14.01,2013-01-31 13:57:00,
2013-01-31 09:02:00,60.1,58.4,30.10,NNE,33,1.0,9.0,94,0.01,,SKC,0.10,VWS V14.01,2013-01-31 14:02:00,
2013-01-31 09:07:00,60.2,58.5,30.11,North,349,5.0,9.0,94,0.01,,SKC,0.10,VWS V14.01,2013-01-31 14:07:00,
2013-01-31 09:12:00,60.2,58.5,30.10,North,360,2.0,10.0,94,0.01,,SKC,0.10,VWS V14.01,2013-01-31 14:12:00,
2013-01-31 09:17:00,60.3,58.6,30.11,NW,323,7.0,11.0,94,0.01,,SKC,0.10,VWS V14.01,2013-01-31 14:17:00,
2013-01-31 09:22:00,60.4,58.4,30.11,NNW,339,7.0,11.0,93,0.01,,SKC,0.10,VWS V14.01,2013-01-31 14:22:00,
2013-01-31 09:27:00,60.5,58.5,30.10,NNW,333,2.0,11.0,93,0.01,,SKC,0.10,VWS V14.01,2013-01-31 14:27:00,
2013-01-31 09:32:00,60.7,58.7,30.11,NNE,30,1.0,4.0,93,0.01,,SKC,0.10,VWS V14.01,2013-01-31 14:32:00,
2013-01-31 09:37:00,61.1,59.4,30.11,NNE,15,4.0,4.0,94,0.01,,SKC,0.10,VWS V14.01,2013-01-31 14:37:00,
2013-01-31 09:42:00,60.8,58.5,30.12,North,355,5.0,9.0,92,0.01,,SKC,0.10,VWS V14.01,2013-01-31 14:42:00,
2013-01-31 09:47:00,60.8,58.5,30.12,NNE,17,6.0,9.0,92,0.01,,SKC,0.10,VWS V14.01,2013-01-31 14:47:00,
2013-01-31 09:52:00,60.7,58.4,30.12,NNW,347,6.0,9.0,92,0.01,,SKC,0.10,VWS V14.01,2013-01-31 14:52:00,
2013-01-31 09:57:00,60.7,58.4,30.12,NNW,337,6.0,10.0,92,0.01,,SKC,0.10,VWS V14.01,2013-01-31 14:57:00,
2013-01-31 10:02:00,60.8,58.5,30.12,North,350,4.0,8.0,92,0.00,,SKC,0.10,VWS V14.01,2013-01-31 15:02:00,
2013-01-31 10:07:00,60.9,58.6,30.12,NNE,28,4.0,10.0,92,0.00,,SKC,0.10,VWS V14.01,2013-01-31 15:07:00,
2013-01-31 10:12:00,61.2,58.9,30.12,NNE,18,6.0,10.0,92,0.00,,SKC,0.10,VWS V14.01,2013-01-31 15:12:00,
2013-01-31 10:17:00,61.2,58.6,30.12,NNE,26,6.0,14.0,91,0.00,,SKC,0.10,VWS V14.01,2013-01-31 15:17:00,
2013-01-31 10:22:00,61.1,58.5,30.12,NE,54,5.0,14.0,91,0.00,,SKC,0.10,VWS V14.01,2013-01-31 15:22:00,
2013-01-31 10:27:00,61.0,58.4,30.12,NNW,329,7.0,14.0,91,0.00,,SKC,0.10,VWS V14.01,2013-01-31 15:27:00,
2013-01-31 10:32:00,61.0,58.4,30.13,NW,319,6.0,8.0,91,0.00,,SKC,0.10,VWS V14.01,2013-01-31 15:32:00,
2013-01-31 10:37:00,61.2,58.6,30.13,NNE,23,8.0,11.0,91,0.00,,SKC,0.10,VWS V14.01,2013-01-31 15:37:00,
2013-01-31 10:42:00,61.4,58.8,30.13,NNW,342,0.0,11.0,91,0.00,,SKC,0.10,VWS V14.01,2013-01-31 15:42:00,
2013-01-31 10:47:00,61.7,58.7,30.13,WNW,298,6.0,11.0,90,0.00,,SKC,0.10,VWS V14.01,2013-01-31 15:47:00,
2013-01-31 10:52:00,61.6,58.6,30.13,NNE,32,4.0,11.0,90,0.00,,SKC,0.10,VWS V14.01,2013-01-31 15:52:00,
2013-01-31 10:57:00,61.5,57.9,30.13,NNW,328,6.0,12.0,88,0.00,,SKC,0.10,VWS V14.01,2013-01-31 15:57:00,
2013-01-31 11:02:00,61.3,57.7,30.13,NNW,328,5.0,9.0,88,0.01,,SKC,0.11,VWS V14.01,2013-01-31 16:02:00,
2013-01-31 11:07:00,61.2,57.6,30.13,NNE,17,8.0,11.0,88,0.01,,SKC,0.11,VWS V14.01,2013-01-31 16:07:00,
2013-01-31 11:12:00,61.6,58.3,30.13,NNW,342,5.0,11.0,89,0.01,,SKC,0.11,VWS V14.01,2013-01-31 16:12:00,
2013-01-31 11:17:00,61.8,58.2,30.13,NNE,24,3.0,11.0,88,0.01,,SKC,0.11,VWS V14.01,2013-01-31 16:17:00,
2013-01-31 11:22:00,62.2,58.6,30.13,NNW,330,5.0,11.0,88,0.01,,SKC,0.11,VWS V14.01,2013-01-31 16:22:00,
2013-01-31 11:27:00,62.8,58.9,30.13,NNW,342,1.0,11.0,87,0.01,,SKC,0.11,VWS V14.01,2013-01-31 16:27:00,
2013-01-31 11:32:00,63.4,59.2,30.13,NNW,327,5.0,8.0,86,0.01,,SKC,0.11,VWS V14.01,2013-01-31 16:32:00,
2013-01-31 11:37:00,63.7,58.8,30.12,WNW,290,5.0,10.0,84,0.01,,SKC,0.11,VWS V14.01,2013-01-31 16:37:00,
2013-01-31 11:42:00,63.8,59.2,30.12,North,360,2.0,11.0,85,0.01,,SKC,0.11,VWS V14.01,2013-01-31 16:42:00,
2013-01-31 11:47:00,63.6,58.7,30.12,NW,314,5.0,11.0,84,0.01,,SKC,0.11,VWS V14.01,2013-01-31 16:47:00,
2013-01-31 11:52:00,63.5,58.9,30.12,West,277,4.0,11.0,85,0.01,,SKC,0.11,VWS V14.01,2013-01-31 16:52:00,
2013-01-31 11:57:00,63.6,58.7,30.12,NW,326,7.0,11.0,84,0.01,,SKC,0.11,VWS V14.01,2013-01-31 16:57:00,
2013-01-31 12:02:00,63.6,58.3,30.11,NE,35,4.0,9.0,83,0.00,,SKC,0.11,VWS V14.01,2013-01-31 17:02:00,
2013-01-31 12:07:00,63.8,58.5,30.11,NNW,346,4.0,9.0,83,0.00,,SKC,0.11,VWS V14.01,2013-01-31 17:07:00,
2013-01-31 12:12:00,63.9,58.3,30.11,NW,317,2.0,9.0,82,0.00,,SKC,0.11,VWS V14.01,2013-01-31 17:12:00,
2013-01-31 12:17:00,64.0,58.4,30.11,NW,314,3.0,9.0,82,0.00,,SKC,0.11,VWS V14.01,2013-01-31 17:17:00,
2013-01-31 12:22:00,64.1,58.5,30.11,West,281,3.0,9.0,82,0.00,,SKC,0.11,VWS V14.01,2013-01-31 17:22:00,
2013-01-31 12:27:00,64.6,59.0,30.11,WNW,288,4.0,9.0,82,0.00,,SKC,0.11,VWS V14.01,2013-01-31 17:27:00,
2013-01-31 12:32:00,64.6,58.7,30.11,NW,313,2.0,8.0,81,0.00,,SKC,0.11,VWS V14.01,2013-01-31 17:32:00,
2013-01-31 12:37:00,64.8,58.5,30.11,NE,37,2.0,10.0,80,0.00,,SKC,0.11,VWS V14.01,2013-01-31 17:37:00,
2013-01-31 12:42:00,65.0,58.7,30.11,NNW,336,5.0,10.0,80,0.00,,SKC,0.11,VWS V14.01,2013-01-31 17:42:00,
2013-01-31 12:47:00,65.6,59.6,30.10,NNE,32,4.0,10.0,81,0.00,,SKC,0.11,VWS V14.01,2013-01-31 17:47:00,
2013-01-31 12:52:00,66.0,59.3,30.10,NNE,22,5.0,10.0,79,0.00,,SKC,0.11,VWS V14.01,2013-01-31 17:52:00,
2013-01-31 12:57:00,66.1,59.0,30.10,NNW,348,9.0,10.0,78,0.00,,SKC,0.11,VWS V14.01,2013-01-31 17:57:00,
2013-01-31 13:02:00,66.2,58.8,30.09,WNW,292,6.0,9.0,77,0.00,,SKC,0.11,VWS V14.01,2013-01-31 18:02:00,
2013-01-31 13:07:00,66.5,59.1,30.09,NW,304,4.0,10.0,77,0.00,,SKC,0.11,VWS V14.01,2013-01-31 18:07:00,
2013-01-31 13:12:00,66.7,58.9,30.09,WNW,288,8.0,10.0,76,0.00,,SKC,0.11,VWS V14.01,2013-01-31 18:12:00,
2013-01-31 13:17:00,66.9,58.7,30.09,NE,46,7.0,11.0,75,0.00,,SKC,0.11,VWS V14.01,2013-01-31 18:17:00,
2013-01-31 13:22:00,67.1,58.9,30.09,NNW,347,5.0,11.0,75,0.00,,SKC,0.11,VWS V14.01,2013-01-31 18:22:00,
2013-01-31 13:27:00,66.9,58.7,30.08,NNE,18,4.0,11.0,75,0.00,,SKC,0.11,VWS V14.01,2013-01-31 18:27:00,
2013-01-31 13:32:00,67.1,58.9,30.08,NW,320,5.0,8.0,75,0.00,,SKC,0.11,VWS V14.01,2013-01-31 18:32:00,
2013-01-31 13:37:00,67.0,58.8,30.08,WNW,302,6.0,8.0,75,0.00,,SKC,0.11,VWS V14.01,2013-01-31 18:37:00,
2013-01-31 13:42:00,67.5,58.9,30.08,WNW,294,4.0,8.0,74,0.00,,SKC,0.11,VWS V14.01,2013-01-31 18:42:00,
2013-01-31 13:47:00,67.7,58.4,30.08,NW,307,7.0,13.0,72,0.00,,SKC,0.11,VWS V14.01,2013-01-31 18:47:00,
2013-01-31 13:52:00,67.9,58.5,30.07,WSW,249,4.0,13.0,72,0.00,,SKC,0.11,VWS V14.01,2013-01-31 18:52:00,
2013-01-31 13:57:00,68.3,58.5,30.07,NNW,336,4.0,13.0,71,0.00,,SKC,0.11,VWS V14.01,2013-01-31 18:57:00,
2013-01-31 14:00:00,68.5,58.7,30.07,WNW,292,5.0,13.0,71,0.00,,SKC,0.11,VWS V14.01,2013-01-31 19:00:00,
2013-01-31 14:02:00,68.4,58.6,30.07,NNE,13,6.0,13.0,71,0.00,,SKC,0.11,VWS V14.01,2013-01-31 19:02:00,
2013-01-31 14:07:00,68.9,58.3,30.07,WNW,299,8.0,13.0,69,0.00,,SKC,0.11,VWS V14.01,2013-01-31 19:07:00,
2013-01-31 14:12:00,69.0,58.4,30.07,NNW,336,6.0,13.0,69,0.00,,SKC,0.11,VWS V14.01,2013-01-31 19:12:00,
2013-01-31 14:17:00,69.5,58.5,30.07,NE,48,9.0,13.0,68,0.00,,SKC,0.11,VWS V14.01,2013-01-31 19:17:00,
2013-01-31 14:36:00,70.1,58.2,30.07,WSW,249,5.0,5.0,66,0.00,,SKC,0.11,VWS V14.01,2013-01-31 19:36:00,
2013-01-31 14:41:00,70.2,57.0,30.08,WNW,291,10.0,12.0,63,0.00,,SKC,0.11,VWS V14.01,2013-01-31 19:41:00,
2013-01-31 14:46:00,70.2,57.0,30.08,WNW,291,10.0,12.0,63,0.00,,SKC,0.11,VWS V14.01,2013-01-31 19:46:00,
2013-01-31 14:51:00,69.6,54.7,30.07,WNW,286,8.0,12.0,59,0.00,,SKC,0.11,VWS V14.01,2013-01-31 19:51:00,
2013-01-31 14:56:00,69.6,53.7,30.07,WNW,292,8.0,13.0,57,0.00,,SKC,0.11,VWS V14.01,2013-01-31 19:56:00,
2013-01-31 15:01:00,69.9,54.0,30.08,West,279,5.0,8.0,57,0.00,,SKC,0.11,VWS V14.01,2013-01-31 20:01:00,
2013-01-31 15:06:00,70.0,53.1,30.08,West,274,10.0,14.0,55,0.00,,SKC,0.11,VWS V14.01,2013-01-31 20:06:00,
2013-01-31 15:11:00,70.2,54.3,30.08,West,265,6.0,14.0,57,0.00,,SKC,0.11,VWS V14.01,2013-01-31 20:11:00,
2013-01-31 15:16:00,70.1,53.2,30.08,NNW,327,5.0,14.0,55,0.00,,SKC,0.11,VWS V14.01,2013-01-31 20:16:00,
2013-01-31 15:21:00,70.5,53.6,30.08,NNE,23,8.0,14.0,55,0.00,,SKC,0.11,VWS V14.01,2013-01-31 20:21:00,
2013-01-31 15:26:00,70.6,54.2,30.07,West,281,7.0,14.0,56,0.00,,SKC,0.11,VWS V14.01,2013-01-31 20:26:00,
2013-01-31 15:31:00,69.9,53.0,30.08,NNW,327,7.0,10.0,55,0.00,,SKC,0.11,VWS V14.01,2013-01-31 20:31:00,
2013-01-31 15:36:00,69.6,54.2,30.08,West,271,3.0,11.0,58,0.00,,SKC,0.11,VWS V14.01,2013-01-31 20:36:00,
2013-01-31 15:41:00,69.7,53.8,30.08,West,271,6.0,13.0,57,0.00,,SKC,0.11,VWS V14.01,2013-01-31 20:41:00,
2013-01-31 15:46:00,69.6,53.7,30.08,WNW,287,4.0,13.0,57,0.00,,SKC,0.11,VWS V14.01,2013-01-31 20:46:00,
2013-01-31 15:51:00,69.7,54.3,30.08,West,267,6.0,13.0,58,0.00,,SKC,0.11,VWS V14.01,2013-01-31 20:51:00,
2013-01-31 15:56:00,69.7,54.8,30.08,WNW,284,7.0,13.0,59,0.00,,SKC,0.11,VWS V14.01,2013-01-31 20:56:00,
2013-01-31 16:01:00,69.5,54.6,30.08,West,279,6.0,10.0,59,0.00,,SKC,0.11,VWS V14.01,2013-01-31 21:01:00,
2013-01-31 16:06:00,69.5,54.6,30.08,West,259,5.0,11.0,59,0.00,,SKC,0.11,VWS V14.01,2013-01-31 21:06:00,
2013-01-31 16:11:00,69.6,55.1,30.08,WNW,290,5.0,12.0,60,0.00,,SKC,0.11,VWS V14.01,2013-01-31 21:11:00,
2013-01-31 16:16:00,69.9,53.5,30.08,WNW,292,7.0,12.0,56,0.00,,SKC,0.11,VWS V14.01,2013-01-31 21:16:00,
2013-01-31 16:21:00,69.8,52.9,30.08,NNW,334,8.0,12.0,55,0.00,,SKC,0.11,VWS V14.01,2013-01-31 21:21:00,
2013-01-31 16:26:00,69.9,52.5,30.08,NW,319,4.0,12.0,54,0.00,,SKC,0.11,VWS V14.01,2013-01-31 21:26:00,
2013-01-31 16:31:00,69.8,50.9,30.09,NW,318,7.0,10.0,51,0.00,,SKC,0.11,VWS V14.01,2013-01-31 21:31:00,
2013-01-31 16:36:00,69.8,50.3,30.08,NW,317,5.0,10.0,50,0.00,,SKC,0.11,VWS V14.01,2013-01-31 21:36:00,
2013-01-31 16:41:00,70.0,50.5,30.09,NE,43,9.0,11.0,50,0.00,,SKC,0.11,VWS V14.01,2013-01-31 21:41:00,
2013-01-31 16:46:00,70.0,49.4,30.09,NW,314,8.0,11.0,48,0.00,,SKC,0.11,VWS V14.01,2013-01-31 21:46:00,
2013-01-31 16:51:00,69.5,49.0,30.09,West,279,10.0,12.0,48,0.00,,SKC,0.11,VWS V14.01,2013-01-31 21:51:00,
2013-01-31 16:56:00,69.0,48.0,30.09,NNW,330,8.0,14.0,47,0.00,,SKC,0.11,VWS V14.01,2013-01-31 21:56:00,
2013-01-31 17:01:00,68.8,47.2,30.09,NNW,336,8.0,10.0,46,0.00,,SKC,0.11,VWS V14.01,2013-01-31 22:01:00,
2013-01-31 17:06:00,68.3,46.2,30.09,WNW,298,4.0,11.0,45,0.00,,SKC,0.11,VWS V14.01,2013-01-31 22:06:00,
2013-01-31 17:11:00,67.8,43.9,30.10,NW,309,7.0,13.0,42,0.00,,SKC,0.11,VWS V14.01,2013-01-31 22:11:00,
2013-01-31 17:16:00,67.4,44.8,30.10,North,355,2.0,14.0,44,0.00,,SKC,0.11,VWS V14.01,2013-01-31 22:16:00,
2013-01-31 17:21:00,67.1,43.9,30.10,NNE,21,4.0,14.0,43,0.00,,SKC,0.11,VWS V14.01,2013-01-31 22:21:00,
2013-01-31 17:26:00,67.0,44.4,30.10,WNW,295,9.0,14.0,44,0.00,,SKC,0.11,VWS V14.01,2013-01-31 22:26:00,
2013-01-31 17:31:00,67.0,45.6,30.10,WNW,300,6.0,6.0,46,0.00,,SKC,0.11,VWS V14.01,2013-01-31 22:31:00,
2013-01-31 17:36:00,66.6,45.8,30.10,NW,311,4.0,10.0,47,0.00,,SKC,0.11,VWS V14.01,2013-01-31 22:36:00,
2013-01-31 17:41:00,66.2,47.0,30.10,WNW,290,5.0,10.0,50,0.00,,SKC,0.11,VWS V14.01,2013-01-31 22:41:00,
2013-01-31 17:46:00,65.7,46.0,30.11,NW,311,4.0,12.0,49,0.00,,SKC,0.11,VWS V14.01,2013-01-31 22:46:00,
2013-01-31 17:51:00,65.4,46.3,30.11,NW,320,5.0,12.0,50,0.00,,SKC,0.11,VWS V14.01,2013-01-31 22:51:00,
2013-01-31 17:56:00,65.1,46.0,30.11,WNW,299,5.0,12.0,50,0.00,,SKC,0.11,VWS V14.01,2013-01-31 22:56:00,
2013-01-31 18:01:00,64.8,45.7,30.11,West,281,5.0,6.0,50,0.00,,SKC,0.11,VWS V14.01,2013-01-31 23:01:00,
2013-01-31 18:06:00,64.4,44.3,30.12,NNW,328,2.0,10.0,48,0.00,,SKC,0.11,VWS V14.01,2013-01-31 23:06:00,
2013-01-31 18:11:00,64.0,43.9,30.12,NNE,23,6.0,10.0,48,0.00,,SKC,0.11,VWS V14.01,2013-01-31 23:11:00,
2013-01-31 18:16:00,63.6,41.9,30.12,NW,307,5.0,11.0,45,0.00,,SKC,0.11,VWS V14.01,2013-01-31 23:16:00,
2013-01-31 18:21:00,63.3,41.6,30.12,WNW,303,4.0,11.0,45,0.00,,SKC,0.11,VWS V14.01,2013-01-31 23:21:00,
2013-01-31 18:26:00,62.9,41.3,30.12,NW,309,3.0,11.0,45,0.00,,SKC,0.11,VWS V14.01,2013-01-31 23:26:00,
2013-01-31 18:31:00,62.6,40.4,30.12,NNE,31,9.0,9.0,44,0.00,,SKC,0.11,VWS V14.01,2013-01-31 23:31:00,
2013-01-31 18:36:00,62.3,40.1,30.13,West,277,4.0,10.0,44,0.00,,SKC,0.11,VWS V14.01,2013-01-31 23:36:00,
2013-01-31 18:41:00,62.0,39.3,30.13,WNW,287,3.0,10.0,43,0.00,,SKC,0.11,VWS V14.01,2013-01-31 23:41:00,
2013-01-31 18:46:00,61.7,39.6,30.13,NW,321,4.0,10.0,44,0.00,,SKC,0.11,VWS V14.01,2013-01-31 23:46:00,
2013-01-31 18:51:00,61.3,40.4,30.13,WNW,284,2.0,10.0,46,0.00,,SKC,0.11,VWS V14.01,2013-01-31 23:51:00,
2013-01-31 18:56:00,61.0,40.1,30.13,NW,311,6.0,10.0,46,0.00,,SKC,0.11,VWS V14.01,2013-01-31 23:56:00,
2013-01-31 19:01:00,60.7,39.8,30.13,WNW,300,2.0,4.0,46,0.00,,SKC,0.11,VWS V14.01,2013-02-01 00:01:00,
2013-01-31 19:06:00,60.3,39.5,30.13,WNW,284,2.0,9.0,46,0.00,,SKC,0.11,VWS V14.01,2013-02-01 00:06:00,
2013-01-31 19:11:00,60.0,38.6,30.14,NW,310,8.0,10.0,45,0.00,,SKC,0.11,VWS V14.01,2013-02-01 00:11:00,
2013-01-31 19:16:00,59.6,37.7,30.14,NNW,336,6.0,10.0,44,0.00,,SKC,0.11,VWS V14.01,2013-02-01 00:16:00,
2013-01-31 19:21:00,59.4,37.5,30.14,WNW,296,4.0,10.0,44,0.00,,SKC,0.11,VWS V14.01,2013-02-01 00:21:00,
2013-01-31 19:26:00,59.1,37.2,30.14,NW,315,5.0,11.0,44,0.00,,SKC,0.11,VWS V14.01,2013-02-01 00:26:00,
2013-01-31 19:31:00,58.9,37.0,30.14,NW,314,6.0,9.0,44,0.00,,SKC,0.11,VWS V14.01,2013-02-01 00:31:00,
2013-01-31 19:36:00,58.6,37.3,30.15,NW,314,7.0,11.0,45,0.00,,SKC,0.11,VWS V14.01,2013-02-01 00:36:00,
2013-01-31 19:41:00,58.3,37.6,30.15,NNE,23,5.0,11.0,46,0.00,,SKC,0.11,VWS V14.01,2013-02-01 00:41:00,
2013-01-31 19:46:00,58.0,37.9,30.15,NNW,338,2.0,11.0,47,0.00,,SKC,0.11,VWS V14.01,2013-02-01 00:46:00,
2013-01-31 19:51:00,57.8,37.7,30.15,WNW,294,2.0,13.0,47,0.00,,SKC,0.11,VWS V14.01,2013-02-01 00:51:00,
2013-01-31 19:56:00,57.6,37.5,30.16,NW,309,5.0,13.0,47,0.00,,SKC,0.11,VWS V14.01,2013-02-01 00:56:00,
2013-01-31 20:01:00,57.3,37.3,30.16,NNW,334,9.0,12.0,47,0.00,,SKC,0.11,VWS V14.01,2013-02-01 01:01:00,
2013-01-31 20:06:00,57.1,37.6,30.16,NNE,24,4.0,12.0,48,0.00,,SKC,0.11,VWS V14.01,2013-02-01 01:06:00,
2013-01-31 20:11:00,56.8,37.3,30.16,West,281,5.0,12.0,48,0.00,,SKC,0.11,VWS V14.01,2013-02-01 01:11:00,
2013-01-31 20:16:00,56.6,37.7,30.17,NNW,329,4.0,12.0,49,0.00,,SKC,0.11,VWS V14.01,2013-02-01 01:16:00,
2013-01-31 20:21:00,56.4,37.5,30.17,NNE,18,5.0,12.0,49,0.00,,SKC,0.11,VWS V14.01,2013-02-01 01:21:00,
2013-01-31 20:26:00,56.2,37.3,30.17,NNW,330,10.0,12.0,49,0.00,,SKC,0.11,VWS V14.01,2013-02-01 01:26:00,
2013-01-31 20:31:00,56.1,37.2,30.17,NW,307,4.0,8.0,49,0.00,,SKC,0.11,VWS V14.01,2013-02-01 01:31:00,
2013-01-31 20:36:00,55.9,37.0,30.17,NW,306,4.0,9.0,49,0.00,,SKC,0.11,VWS V14.01,2013-02-01 01:36:00,
2013-01-31 20:41:00,55.7,37.4,30.17,NNW,327,4.0,9.0,50,0.00,,SKC,0.11,VWS V14.01,2013-02-01 01:41:00,
2013-01-31 20:46:00,55.5,37.2,30.18,NNE,16,6.0,9.0,50,0.00,,SKC,0.11,VWS V14.01,2013-02-01 01:46:00,
2013-01-31 20:51:00,55.3,37.5,30.18,NE,35,5.0,9.0,51,0.00,,SKC,0.11,VWS V14.01,2013-02-01 01:51:00,
2013-01-31 20:56:00,55.1,37.8,30.18,WNW,284,7.0,9.0,52,0.00,,SKC,0.11,VWS V14.01,2013-02-01 01:56:00,
2013-01-31 21:01:00,54.8,37.5,30.18,NNW,328,3.0,3.0,52,0.00,,SKC,0.11,VWS V14.01,2013-02-01 02:01:00,
2013-01-31 21:06:00,54.7,37.9,30.18,NW,323,1.0,7.0,53,0.00,,SKC,0.11,VWS V14.01,2013-02-01 02:06:00,
2013-01-31 21:11:00,54.5,38.2,30.18,WNW,292,2.0,7.0,54,0.00,,SKC,0.11,VWS V14.01,2013-02-01 02:11:00,
2013-01-31 21:16:00,54.3,38.0,30.18,WNW,296,6.0,7.0,54,0.00,,SKC,0.11,VWS V14.01,2013-02-01 02:16:00,
2013-01-31 21:21:00,54.0,37.8,30.18,NNW,332,1.0,7.0,54,0.00,,SKC,0.11,VWS V14.01,2013-02-01 02:21:00,
2013-01-31 21:26:00,53.8,38.0,30.19,NW,315,1.0,7.0,55,0.00,,SKC,0.11,VWS V14.01,2013-02-01 02:26:00,
2013-01-31 21:31:00,53.6,37.8,30.19,NW,319,7.0,7.0,55,0.00,,SKC,0.11,VWS V14.01,2013-02-01 02:31:00,
2013-01-31 21:36:00,53.6,37.8,30.19,NNW,330,4.0,9.0,55,0.00,,SKC,0.11,VWS V14.01,2013-02-01 02:36:00,
2013-01-31 21:41:00,53.6,37.8,30.19,WNW,303,5.0,10.0,55,0.00,,SKC,0.11,VWS V14.01,2013-02-01 02:41:00,
2013-01-31 21:46:00,53.5,37.3,30.19,NW,319,2.0,10.0,54,0.00,,SKC,0.11,VWS V14.01,2013-02-01 02:46:00,
2013-01-31 21:51:00,53.4,37.2,30.19,WNW,292,5.0,10.0,54,0.00,,SKC,0.11,VWS V14.01,2013-02-01 02:51:00,
2013-01-31 21:56:00,53.4,37.7,30.19,NNW,329,2.0,10.0,55,0.00,,SKC,0.11,VWS V14.01,2013-02-01 02:56:00,
2013-01-31 22:01:00,53.2,37.9,30.19,NNW,331,6.0,6.0,56,0.00,,SKC,0.11,VWS V14.01,2013-02-01 03:01:00,
2013-01-31 22:06:00,53.1,37.4,30.19,NNE,22,2.0,9.0,55,0.00,,SKC,0.11,VWS V14.01,2013-02-01 03:06:00,
2013-01-31 22:11:00,52.8,37.5,30.19,NNW,339,1.0,9.0,56,0.00,,SKC,0.11,VWS V14.01,2013-02-01 03:11:00,
2013-01-31 22:16:00,52.5,37.3,30.19,WNW,294,2.0,9.0,56,0.00,,SKC,0.11,VWS V14.01,2013-02-01 03:16:00,
2013-01-31 22:21:00,52.2,37.4,30.19,North,10,2.0,9.0,57,0.00,,SKC,0.11,VWS V14.01,2013-02-01 03:21:00,
2013-01-31 22:26:00,52.1,37.3,30.19,NNW,338,3.0,9.0,57,0.00,,SKC,0.11,VWS V14.01,2013-02-01 03:26:00,
2013-01-31 22:31:00,52.0,37.7,30.20,NNW,345,6.0,6.0,58,0.00,,SKC,0.11,VWS V14.01,2013-02-01 03:31:00,
2013-01-31 22:36:00,52.0,38.1,30.20,WNW,292,1.0,6.0,59,0.00,,SKC,0.11,VWS V14.01,2013-02-01 03:36:00,
2013-01-31 22:41:00,51.9,38.0,30.20,NW,311,4.0,8.0,59,0.00,,SKC,0.11,VWS V14.01,2013-02-01 03:41:00,
2013-01-31 22:46:00,51.8,37.9,30.20,NE,42,2.0,8.0,59,0.00,,SKC,0.11,VWS V14.01,2013-02-01 03:46:00,
2013-01-31 22:51:00,51.6,37.8,30.20,NNW,334,1.0,8.0,59,0.00,,SKC,0.11,VWS V14.01,2013-02-01 03:51:00,
2013-01-31 22:56:00,51.4,37.6,30.21,NW,315,6.0,8.0,59,0.00,,SKC,0.11,VWS V14.01,2013-02-01 03:56:00,
2013-01-31 23:01:00,51.3,37.5,30.21,NNW,329,0.0,6.0,59,0.00,,SKC,0.11,VWS V14.01,2013-02-01 04:01:00,
2013-01-31 23:06:00,51.2,37.4,30.21,North,5,4.0,6.0,59,0.00,,SKC,0.11,VWS V14.01,2013-02-01 04:06:00,
2013-01-31 23:11:00,51.1,37.3,30.20,NNW,333,1.0,6.0,59,0.00,,SKC,0.11,VWS V14.01,2013-02-01 04:11:00,
2013-01-31 23:16:00,50.9,37.1,30.20,North,349,1.0,6.0,59,0.00,,SKC,0.11,VWS V14.01,2013-02-01 04:16:00,
2013-01-31 23:21:00,50.7,36.9,30.21,NNE,17,3.0,6.0,59,0.00,,SKC,0.11,VWS V14.01,2013-02-01 04:21:00,
2013-01-31 23:26:00,50.6,36.8,30.20,North,11,2.0,7.0,59,0.00,,SKC,0.11,VWS V14.01,2013-02-01 04:26:00,
2013-01-31 23:31:00,50.5,36.7,30.20,NE,35,3.0,6.0,59,0.00,,SKC,0.11,VWS V14.01,2013-02-01 04:31:00,
2013-01-31 23:36:00,50.5,36.7,30.21,North,355,2.0,7.0,59,0.00,,SKC,0.11,VWS V14.01,2013-02-01 04:36:00,
2013-01-31 23:41:00,50.5,37.2,30.20,NNW,334,3.0,7.0,60,0.00,,SKC,0.11,VWS V14.01,2013-02-01 04:41:00,
2013-01-31 23:46:00,50.5,36.7,30.21,NNE,18,6.0,9.0,59,0.00,,SKC,0.11,VWS V14.01,2013-02-01 04:46:00,
2013-01-31 23:51:00,50.5,36.7,30.21,NNW,328,4.0,9.0,59,0.00,,SKC,0.11,VWS V14.01,2013-02-01 04:51:00,
2013-01-31 23:56:00,50.4,36.6,30.21,NW,325,2.0,9.0,59,0.00,,SKC,0.11,VWS V14.01,2013-02-01 04:56:00,